sensor_id;sensor_type;location;lat;lon;timestamp;P1;durP1;ratioP1;P2;durP2;ratioP2
5414;SDS011;2730;51.512;7.504;2023-07-31T00:00:08;8.80;;;3.60;;
5414;SDS011;2730;51.512;7.504;2023-07-31T00:02:35;9.97;;;3.83;;
5414;SDS011;2730;51.512;7.504;2023-07-31T00:05:02;9.20;;;3.70;;
5414;SDS011;2730;51.512;7.504;2023-07-31T00:07:29;7.63;;;3.27;;
5414;SDS011;2730;51.512;7.504;2023-07-31T00:09:57;10.13;;;3.83;;
5414;SDS011;2730;51.512;7.504;2023-07-31T00:12:24;7.57;;;3.40;;
5414;SDS011;2730;51.512;7.504;2023-07-31T00:14:50;3.77;;;3.23;;
5414;SDS011;2730;51.512;7.504;2023-07-31T00:17:17;6.83;;;4.40;;
5414;SDS011;2730;51.512;7.504;2023-07-31T00:19:44;11.27;;;3.97;;
5414;SDS011;2730;51.512;7.504;2023-07-31T00:22:11;7.03;;;3.67;;
5414;SDS011;2730;51.512;7.504;2023-07-31T00:24:38;4.50;;;3.33;;
5414;SDS011;2730;51.512;7.504;2023-07-31T00:27:06;10.63;;;3.13;;
5414;SDS011;2730;51.512;7.504;2023-07-31T00:29:33;5.90;;;3.50;;
5414;SDS011;2730;51.512;7.504;2023-07-31T00:31:59;6.60;;;4.00;;
5414;SDS011;2730;51.512;7.504;2023-07-31T00:34:26;7.83;;;2.80;;
5414;SDS011;2730;51.512;7.504;2023-07-31T00:36:53;6.07;;;3.33;;
5414;SDS011;2730;51.512;7.504;2023-07-31T00:39:20;10.77;;;2.90;;
5414;SDS011;2730;51.512;7.504;2023-07-31T00:41:46;6.73;;;3.23;;
5414;SDS011;2730;51.512;7.504;2023-07-31T00:44:14;12.43;;;3.40;;
5414;SDS011;2730;51.512;7.504;2023-07-31T00:46:41;6.57;;;3.73;;
5414;SDS011;2730;51.512;7.504;2023-07-31T00:49:08;6.00;;;3.30;;
5414;SDS011;2730;51.512;7.504;2023-07-31T00:51:36;7.83;;;4.43;;
5414;SDS011;2730;51.512;7.504;2023-07-31T00:54:03;6.87;;;4.07;;
5414;SDS011;2730;51.512;7.504;2023-07-31T00:56:30;11.33;;;3.73;;
5414;SDS011;2730;51.512;7.504;2023-07-31T00:58:57;5.60;;;3.23;;
5414;SDS011;2730;51.512;7.504;2023-07-31T01:01:25;9.67;;;3.60;;
5414;SDS011;2730;51.512;7.504;2023-07-31T01:03:52;8.73;;;4.20;;
5414;SDS011;2730;51.512;7.504;2023-07-31T01:06:22;13.40;;;3.70;;
5414;SDS011;2730;51.512;7.504;2023-07-31T01:08:58;12.17;;;4.63;;
5414;SDS011;2730;51.512;7.504;2023-07-31T01:11:29;11.73;;;4.40;;
5414;SDS011;2730;51.512;7.504;2023-07-31T01:13:59;13.83;;;4.63;;
5414;SDS011;2730;51.512;7.504;2023-07-31T01:16:27;7.23;;;4.30;;
5414;SDS011;2730;51.512;7.504;2023-07-31T01:18:54;14.27;;;4.63;;
5414;SDS011;2730;51.512;7.504;2023-07-31T01:21:37;12.60;;;4.70;;
5414;SDS011;2730;51.512;7.504;2023-07-31T01:24:20;9.40;;;4.67;;
5414;SDS011;2730;51.512;7.504;2023-07-31T01:26:51;12.60;;;5.10;;
5414;SDS011;2730;51.512;7.504;2023-07-31T01:29:23;15.17;;;5.47;;
5414;SDS011;2730;51.512;7.504;2023-07-31T01:31:56;16.57;;;5.17;;
5414;SDS011;2730;51.512;7.504;2023-07-31T01:34:25;20.03;;;5.43;;
5414;SDS011;2730;51.512;7.504;2023-07-31T01:36:53;12.07;;;5.07;;
5414;SDS011;2730;51.512;7.504;2023-07-31T01:39:20;8.93;;;5.03;;
5414;SDS011;2730;51.512;7.504;2023-07-31T01:41:47;11.30;;;4.93;;
5414;SDS011;2730;51.512;7.504;2023-07-31T01:44:15;13.90;;;4.60;;
5414;SDS011;2730;51.512;7.504;2023-07-31T01:46:42;11.50;;;4.83;;
5414;SDS011;2730;51.512;7.504;2023-07-31T01:49:09;14.13;;;4.33;;
5414;SDS011;2730;51.512;7.504;2023-07-31T01:51:36;12.40;;;5.07;;
5414;SDS011;2730;51.512;7.504;2023-07-31T01:54:03;10.83;;;5.47;;
5414;SDS011;2730;51.512;7.504;2023-07-31T01:56:30;9.30;;;4.50;;
5414;SDS011;2730;51.512;7.504;2023-07-31T01:58:57;14.60;;;4.60;;
5414;SDS011;2730;51.512;7.504;2023-07-31T02:01:25;18.80;;;4.90;;
5414;SDS011;2730;51.512;7.504;2023-07-31T02:03:51;13.00;;;4.63;;
5414;SDS011;2730;51.512;7.504;2023-07-31T02:06:19;11.90;;;3.90;;
5414;SDS011;2730;51.512;7.504;2023-07-31T02:08:45;10.33;;;4.43;;
5414;SDS011;2730;51.512;7.504;2023-07-31T02:11:12;9.03;;;4.87;;
5414;SDS011;2730;51.512;7.504;2023-07-31T02:13:39;11.90;;;4.53;;
5414;SDS011;2730;51.512;7.504;2023-07-31T02:16:06;10.80;;;3.77;;
5414;SDS011;2730;51.512;7.504;2023-07-31T02:18:34;6.27;;;3.47;;
5414;SDS011;2730;51.512;7.504;2023-07-31T02:21:01;9.70;;;3.90;;
5414;SDS011;2730;51.512;7.504;2023-07-31T02:23:27;9.27;;;4.40;;
5414;SDS011;2730;51.512;7.504;2023-07-31T02:25:54;9.53;;;3.73;;
5414;SDS011;2730;51.512;7.504;2023-07-31T02:28:21;10.07;;;3.73;;
5414;SDS011;2730;51.512;7.504;2023-07-31T02:30:49;9.40;;;3.80;;
5414;SDS011;2730;51.512;7.504;2023-07-31T02:33:18;10.13;;;3.80;;
5414;SDS011;2730;51.512;7.504;2023-07-31T02:35:46;12.00;;;3.80;;
5414;SDS011;2730;51.512;7.504;2023-07-31T02:38:13;6.97;;;3.30;;
5414;SDS011;2730;51.512;7.504;2023-07-31T02:40:40;11.10;;;3.80;;
5414;SDS011;2730;51.512;7.504;2023-07-31T02:43:07;14.30;;;3.60;;
5414;SDS011;2730;51.512;7.504;2023-07-31T02:45:34;9.60;;;3.50;;
5414;SDS011;2730;51.512;7.504;2023-07-31T02:48:00;9.23;;;3.97;;
5414;SDS011;2730;51.512;7.504;2023-07-31T02:50:27;9.07;;;4.03;;
5414;SDS011;2730;51.512;7.504;2023-07-31T02:52:56;12.00;;;4.17;;
5414;SDS011;2730;51.512;7.504;2023-07-31T02:55:22;7.60;;;3.50;;
5414;SDS011;2730;51.512;7.504;2023-07-31T02:57:49;13.60;;;3.83;;
5414;SDS011;2730;51.512;7.504;2023-07-31T03:00:17;10.07;;;3.50;;
5414;SDS011;2730;51.512;7.504;2023-07-31T03:02:44;15.17;;;4.43;;
5414;SDS011;2730;51.512;7.504;2023-07-31T03:05:11;11.37;;;4.13;;
5414;SDS011;2730;51.512;7.504;2023-07-31T03:07:37;9.17;;;4.40;;
5414;SDS011;2730;51.512;7.504;2023-07-31T03:10:06;12.27;;;4.17;;
5414;SDS011;2730;51.512;7.504;2023-07-31T03:12:34;11.70;;;4.50;;
5414;SDS011;2730;51.512;7.504;2023-07-31T03:15:00;17.40;;;3.60;;
5414;SDS011;2730;51.512;7.504;2023-07-31T03:17:27;5.43;;;3.40;;
5414;SDS011;2730;51.512;7.504;2023-07-31T03:19:54;10.20;;;3.33;;
5414;SDS011;2730;51.512;7.504;2023-07-31T03:22:21;8.50;;;3.70;;
5414;SDS011;2730;51.512;7.504;2023-07-31T03:24:47;5.87;;;3.30;;
5414;SDS011;2730;51.512;7.504;2023-07-31T03:27:15;13.00;;;4.00;;
5414;SDS011;2730;51.512;7.504;2023-07-31T03:29:42;9.97;;;3.67;;
5414;SDS011;2730;51.512;7.504;2023-07-31T03:32:09;9.27;;;3.23;;
5414;SDS011;2730;51.512;7.504;2023-07-31T03:34:36;10.87;;;3.70;;
5414;SDS011;2730;51.512;7.504;2023-07-31T03:37:02;11.90;;;3.70;;
5414;SDS011;2730;51.512;7.504;2023-07-31T03:39:30;9.63;;;3.83;;
5414;SDS011;2730;51.512;7.504;2023-07-31T03:41:57;9.37;;;4.23;;
5414;SDS011;2730;51.512;7.504;2023-07-31T03:44:25;5.50;;;3.40;;
5414;SDS011;2730;51.512;7.504;2023-07-31T03:46:52;9.27;;;4.07;;
5414;SDS011;2730;51.512;7.504;2023-07-31T03:49:19;8.83;;;4.30;;
5414;SDS011;2730;51.512;7.504;2023-07-31T03:51:46;8.07;;;3.87;;
5414;SDS011;2730;51.512;7.504;2023-07-31T03:54:12;14.77;;;4.40;;
5414;SDS011;2730;51.512;7.504;2023-07-31T03:56:39;5.03;;;3.10;;
5414;SDS011;2730;51.512;7.504;2023-07-31T03:59:06;11.23;;;4.07;;
5414;SDS011;2730;51.512;7.504;2023-07-31T04:01:34;9.37;;;3.77;;
5414;SDS011;2730;51.512;7.504;2023-07-31T04:04:01;17.53;;;3.83;;
5414;SDS011;2730;51.512;7.504;2023-07-31T04:06:28;9.97;;;4.07;;
5414;SDS011;2730;51.512;7.504;2023-07-31T04:08:54;12.60;;;3.67;;
5414;SDS011;2730;51.512;7.504;2023-07-31T04:11:21;7.83;;;3.17;;
5414;SDS011;2730;51.512;7.504;2023-07-31T04:13:48;10.00;;;4.23;;
5414;SDS011;2730;51.512;7.504;2023-07-31T04:16:15;6.07;;;3.60;;
5414;SDS011;2730;51.512;7.504;2023-07-31T04:18:43;7.43;;;3.10;;
5414;SDS011;2730;51.512;7.504;2023-07-31T04:21:09;8.40;;;3.60;;
5414;SDS011;2730;51.512;7.504;2023-07-31T04:23:36;5.63;;;3.27;;
5414;SDS011;2730;51.512;7.504;2023-07-31T04:26:04;11.80;;;5.53;;
5414;SDS011;2730;51.512;7.504;2023-07-31T04:28:31;15.13;;;3.70;;
5414;SDS011;2730;51.512;7.504;2023-07-31T04:30:57;11.90;;;3.67;;
5414;SDS011;2730;51.512;7.504;2023-07-31T04:33:24;7.47;;;4.23;;
5414;SDS011;2730;51.512;7.504;2023-07-31T04:35:53;10.03;;;4.93;;
5414;SDS011;2730;51.512;7.504;2023-07-31T04:38:20;6.13;;;3.50;;
5414;SDS011;2730;51.512;7.504;2023-07-31T04:40:48;9.33;;;3.70;;
5414;SDS011;2730;51.512;7.504;2023-07-31T04:43:15;7.10;;;3.80;;
5414;SDS011;2730;51.512;7.504;2023-07-31T04:45:42;15.47;;;4.07;;
5414;SDS011;2730;51.512;7.504;2023-07-31T04:48:11;5.70;;;3.10;;
5414;SDS011;2730;51.512;7.504;2023-07-31T04:50:37;11.40;;;4.20;;
5414;SDS011;2730;51.512;7.504;2023-07-31T04:53:05;9.97;;;4.03;;
5414;SDS011;2730;51.512;7.504;2023-07-31T04:55:32;9.07;;;4.07;;
5414;SDS011;2730;51.512;7.504;2023-07-31T04:57:59;8.70;;;4.30;;
5414;SDS011;2730;51.512;7.504;2023-07-31T05:00:26;10.67;;;3.47;;
5414;SDS011;2730;51.512;7.504;2023-07-31T05:02:52;8.47;;;3.83;;
5414;SDS011;2730;51.512;7.504;2023-07-31T05:05:19;15.40;;;4.20;;
5414;SDS011;2730;51.512;7.504;2023-07-31T05:07:46;15.70;;;3.80;;
5414;SDS011;2730;51.512;7.504;2023-07-31T05:10:14;6.20;;;3.27;;
5414;SDS011;2730;51.512;7.504;2023-07-31T05:12:41;7.97;;;3.80;;
5414;SDS011;2730;51.512;7.504;2023-07-31T05:15:08;11.43;;;4.10;;
5414;SDS011;2730;51.512;7.504;2023-07-31T05:17:35;12.50;;;3.73;;
5414;SDS011;2730;51.512;7.504;2023-07-31T05:20:02;9.00;;;3.33;;
5414;SDS011;2730;51.512;7.504;2023-07-31T05:22:29;9.07;;;3.77;;
5414;SDS011;2730;51.512;7.504;2023-07-31T05:24:56;9.80;;;4.20;;
5414;SDS011;2730;51.512;7.504;2023-07-31T05:27:24;9.53;;;3.93;;
5414;SDS011;2730;51.512;7.504;2023-07-31T05:29:51;5.50;;;3.33;;
5414;SDS011;2730;51.512;7.504;2023-07-31T05:32:18;13.50;;;4.17;;
5414;SDS011;2730;51.512;7.504;2023-07-31T05:34:45;12.47;;;5.23;;
5414;SDS011;2730;51.512;7.504;2023-07-31T05:37:11;10.27;;;4.00;;
5414;SDS011;2730;51.512;7.504;2023-07-31T05:39:38;7.47;;;4.10;;
5414;SDS011;2730;51.512;7.504;2023-07-31T05:42:05;11.70;;;4.83;;
5414;SDS011;2730;51.512;7.504;2023-07-31T05:44:33;9.33;;;3.50;;
5414;SDS011;2730;51.512;7.504;2023-07-31T05:47:00;11.20;;;3.80;;
5414;SDS011;2730;51.512;7.504;2023-07-31T05:49:27;5.60;;;3.87;;
5414;SDS011;2730;51.512;7.504;2023-07-31T05:51:54;6.30;;;3.67;;
5414;SDS011;2730;51.512;7.504;2023-07-31T05:54:21;8.00;;;4.13;;
5414;SDS011;2730;51.512;7.504;2023-07-31T05:56:47;7.43;;;3.83;;
5414;SDS011;2730;51.512;7.504;2023-07-31T05:59:16;8.83;;;3.70;;
5414;SDS011;2730;51.512;7.504;2023-07-31T06:01:44;12.13;;;4.23;;
5414;SDS011;2730;51.512;7.504;2023-07-31T06:04:11;9.10;;;4.30;;
5414;SDS011;2730;51.512;7.504;2023-07-31T06:06:37;8.70;;;4.40;;
5414;SDS011;2730;51.512;7.504;2023-07-31T06:09:04;7.07;;;4.60;;
5414;SDS011;2730;51.512;7.504;2023-07-31T06:11:32;11.70;;;3.30;;
5414;SDS011;2730;51.512;7.504;2023-07-31T06:13:59;13.57;;;4.33;;
5414;SDS011;2730;51.512;7.504;2023-07-31T06:16:26;14.50;;;5.00;;
5414;SDS011;2730;51.512;7.504;2023-07-31T06:18:54;13.27;;;4.40;;
5414;SDS011;2730;51.512;7.504;2023-07-31T06:21:21;9.47;;;5.07;;
5414;SDS011;2730;51.512;7.504;2023-07-31T06:23:48;7.80;;;4.40;;
5414;SDS011;2730;51.512;7.504;2023-07-31T06:26:14;14.83;;;4.90;;
5414;SDS011;2730;51.512;7.504;2023-07-31T06:28:41;14.87;;;4.47;;
5414;SDS011;2730;51.512;7.504;2023-07-31T06:31:08;21.03;;;7.60;;
5414;SDS011;2730;51.512;7.504;2023-07-31T06:33:35;7.83;;;4.80;;
5414;SDS011;2730;51.512;7.504;2023-07-31T06:36:03;9.33;;;4.50;;
5414;SDS011;2730;51.512;7.504;2023-07-31T06:38:30;6.07;;;4.13;;
5414;SDS011;2730;51.512;7.504;2023-07-31T06:40:57;7.70;;;4.07;;
5414;SDS011;2730;51.512;7.504;2023-07-31T06:43:24;12.67;;;5.00;;
5414;SDS011;2730;51.512;7.504;2023-07-31T06:45:51;8.20;;;5.30;;
5414;SDS011;2730;51.512;7.504;2023-07-31T06:48:18;8.77;;;5.53;;
5414;SDS011;2730;51.512;7.504;2023-07-31T06:50:44;12.20;;;4.90;;
5414;SDS011;2730;51.512;7.504;2023-07-31T06:53:12;8.10;;;4.30;;
5414;SDS011;2730;51.512;7.504;2023-07-31T06:55:39;8.37;;;4.40;;
5414;SDS011;2730;51.512;7.504;2023-07-31T06:58:06;6.83;;;4.37;;
5414;SDS011;2730;51.512;7.504;2023-07-31T07:00:33;10.37;;;4.83;;
5414;SDS011;2730;51.512;7.504;2023-07-31T07:02:59;10.73;;;5.17;;
5414;SDS011;2730;51.512;7.504;2023-07-31T07:05:26;7.40;;;4.50;;
5414;SDS011;2730;51.512;7.504;2023-07-31T07:07:53;9.93;;;5.40;;
5414;SDS011;2730;51.512;7.504;2023-07-31T07:10:21;8.00;;;4.60;;
5414;SDS011;2730;51.512;7.504;2023-07-31T07:12:48;7.93;;;4.90;;
5414;SDS011;2730;51.512;7.504;2023-07-31T07:15:15;12.00;;;4.90;;
5414;SDS011;2730;51.512;7.504;2023-07-31T07:17:42;5.63;;;3.93;;
5414;SDS011;2730;51.512;7.504;2023-07-31T07:20:08;7.10;;;4.30;;
5414;SDS011;2730;51.512;7.504;2023-07-31T07:22:35;14.43;;;4.10;;
5414;SDS011;2730;51.512;7.504;2023-07-31T07:25:02;8.60;;;4.60;;
5414;SDS011;2730;51.512;7.504;2023-07-31T07:27:31;7.93;;;4.40;;
5414;SDS011;2730;51.512;7.504;2023-07-31T07:29:58;7.20;;;4.13;;
5414;SDS011;2730;51.512;7.504;2023-07-31T07:32:25;4.23;;;3.83;;
5414;SDS011;2730;51.512;7.504;2023-07-31T07:34:52;5.97;;;3.50;;
5414;SDS011;2730;51.512;7.504;2023-07-31T07:37:18;6.10;;;4.20;;
5414;SDS011;2730;51.512;7.504;2023-07-31T07:39:45;10.53;;;3.83;;
5414;SDS011;2730;51.512;7.504;2023-07-31T07:42:12;6.43;;;3.90;;
5414;SDS011;2730;51.512;7.504;2023-07-31T07:44:40;5.07;;;3.60;;
5414;SDS011;2730;51.512;7.504;2023-07-31T07:47:07;4.50;;;3.90;;
5414;SDS011;2730;51.512;7.504;2023-07-31T07:49:33;8.27;;;4.40;;
5414;SDS011;2730;51.512;7.504;2023-07-31T07:52:00;7.50;;;4.10;;
5414;SDS011;2730;51.512;7.504;2023-07-31T07:54:28;6.83;;;4.20;;
5414;SDS011;2730;51.512;7.504;2023-07-31T07:56:55;10.83;;;3.67;;
5414;SDS011;2730;51.512;7.504;2023-07-31T07:59:21;8.73;;;4.40;;
5414;SDS011;2730;51.512;7.504;2023-07-31T08:01:50;6.80;;;3.63;;
5414;SDS011;2730;51.512;7.504;2023-07-31T08:04:16;10.07;;;4.50;;
5414;SDS011;2730;51.512;7.504;2023-07-31T08:06:43;5.53;;;3.27;;
5414;SDS011;2730;51.512;7.504;2023-07-31T08:09:10;9.53;;;3.83;;
5414;SDS011;2730;51.512;7.504;2023-07-31T08:11:37;7.00;;;3.30;;
5414;SDS011;2730;51.512;7.504;2023-07-31T08:14:03;9.20;;;4.50;;
5414;SDS011;2730;51.512;7.504;2023-07-31T08:16:30;4.80;;;3.63;;
5414;SDS011;2730;51.512;7.504;2023-07-31T08:18:58;3.63;;;3.10;;
5414;SDS011;2730;51.512;7.504;2023-07-31T08:21:25;10.10;;;3.83;;
5414;SDS011;2730;51.512;7.504;2023-07-31T08:23:52;8.50;;;3.30;;
5414;SDS011;2730;51.512;7.504;2023-07-31T08:26:19;6.03;;;3.90;;
5414;SDS011;2730;51.512;7.504;2023-07-31T08:28:46;7.03;;;3.30;;
5414;SDS011;2730;51.512;7.504;2023-07-31T08:31:13;4.20;;;2.60;;
5414;SDS011;2730;51.512;7.504;2023-07-31T08:33:40;7.23;;;3.87;;
5414;SDS011;2730;51.512;7.504;2023-07-31T08:36:08;6.10;;;3.40;;
5414;SDS011;2730;51.512;7.504;2023-07-31T08:38:34;8.97;;;3.37;;
5414;SDS011;2730;51.512;7.504;2023-07-31T08:41:02;10.10;;;3.57;;
5414;SDS011;2730;51.512;7.504;2023-07-31T08:43:29;3.40;;;3.00;;
5414;SDS011;2730;51.512;7.504;2023-07-31T08:45:57;6.33;;;2.80;;
5414;SDS011;2730;51.512;7.504;2023-07-31T08:48:24;6.60;;;3.33;;
5414;SDS011;2730;51.512;7.504;2023-07-31T08:50:51;4.53;;;3.03;;
5414;SDS011;2730;51.512;7.504;2023-07-31T08:53:20;4.73;;;3.17;;
5414;SDS011;2730;51.512;7.504;2023-07-31T08:55:47;3.13;;;2.63;;
5414;SDS011;2730;51.512;7.504;2023-07-31T08:58:15;5.57;;;3.73;;
5414;SDS011;2730;51.512;7.504;2023-07-31T09:00:44;5.47;;;3.53;;
5414;SDS011;2730;51.512;7.504;2023-07-31T09:03:13;3.10;;;2.73;;
5414;SDS011;2730;51.512;7.504;2023-07-31T09:05:42;4.20;;;2.47;;
5414;SDS011;2730;51.512;7.504;2023-07-31T09:08:10;5.03;;;2.43;;
5414;SDS011;2730;51.512;7.504;2023-07-31T09:10:41;2.57;;;2.37;;
5414;SDS011;2730;51.512;7.504;2023-07-31T09:13:08;3.90;;;2.03;;
5414;SDS011;2730;51.512;7.504;2023-07-31T09:15:36;6.40;;;2.20;;
5414;SDS011;2730;51.512;7.504;2023-07-31T09:18:03;2.87;;;1.90;;
5414;SDS011;2730;51.512;7.504;2023-07-31T09:20:31;2.63;;;2.40;;
5414;SDS011;2730;51.512;7.504;2023-07-31T09:23:04;2.70;;;2.50;;
5414;SDS011;2730;51.512;7.504;2023-07-31T09:25:33;2.93;;;2.67;;
5414;SDS011;2730;51.512;7.504;2023-07-31T09:28:02;2.37;;;2.10;;
5414;SDS011;2730;51.512;7.504;2023-07-31T09:30:30;4.13;;;2.40;;
5414;SDS011;2730;51.512;7.504;2023-07-31T09:33:01;3.83;;;2.47;;
5414;SDS011;2730;51.512;7.504;2023-07-31T09:35:31;2.50;;;2.30;;
5414;SDS011;2730;51.512;7.504;2023-07-31T09:37:59;4.60;;;2.03;;
5414;SDS011;2730;51.512;7.504;2023-07-31T09:40:30;5.63;;;2.70;;
5414;SDS011;2730;51.512;7.504;2023-07-31T09:42:58;2.70;;;2.00;;
5414;SDS011;2730;51.512;7.504;2023-07-31T09:45:28;3.30;;;2.97;;
5414;SDS011;2730;51.512;7.504;2023-07-31T09:47:55;2.23;;;2.10;;
5414;SDS011;2730;51.512;7.504;2023-07-31T09:50:22;3.40;;;2.27;;
5414;SDS011;2730;51.512;7.504;2023-07-31T09:52:50;4.40;;;2.60;;
5414;SDS011;2730;51.512;7.504;2023-07-31T09:55:18;3.30;;;2.63;;
5414;SDS011;2730;51.512;7.504;2023-07-31T09:57:45;4.30;;;3.30;;
5414;SDS011;2730;51.512;7.504;2023-07-31T10:00:14;7.00;;;3.70;;
5414;SDS011;2730;51.512;7.504;2023-07-31T10:02:44;2.93;;;2.63;;
5414;SDS011;2730;51.512;7.504;2023-07-31T10:05:13;3.10;;;2.90;;
5414;SDS011;2730;51.512;7.504;2023-07-31T10:07:41;3.90;;;3.27;;
5414;SDS011;2730;51.512;7.504;2023-07-31T10:10:11;5.10;;;2.60;;
5414;SDS011;2730;51.512;7.504;2023-07-31T10:12:41;6.30;;;3.23;;
5414;SDS011;2730;51.512;7.504;2023-07-31T10:15:09;3.37;;;2.90;;
5414;SDS011;2730;51.512;7.504;2023-07-31T10:17:37;2.70;;;2.20;;
5414;SDS011;2730;51.512;7.504;2023-07-31T10:20:06;3.30;;;2.20;;
5414;SDS011;2730;51.512;7.504;2023-07-31T10:22:33;2.40;;;2.20;;
5414;SDS011;2730;51.512;7.504;2023-07-31T10:25:00;7.53;;;2.30;;
5414;SDS011;2730;51.512;7.504;2023-07-31T10:27:28;2.50;;;2.30;;
5414;SDS011;2730;51.512;7.504;2023-07-31T10:29:55;3.80;;;2.43;;
5414;SDS011;2730;51.512;7.504;2023-07-31T10:32:23;2.67;;;2.47;;
5414;SDS011;2730;51.512;7.504;2023-07-31T10:34:51;1.90;;;1.80;;
5414;SDS011;2730;51.512;7.504;2023-07-31T10:37:23;1.90;;;1.80;;
5414;SDS011;2730;51.512;7.504;2023-07-31T10:39:55;1.93;;;1.70;;
5414;SDS011;2730;51.512;7.504;2023-07-31T10:42:27;3.23;;;1.90;;
5414;SDS011;2730;51.512;7.504;2023-07-31T10:44:56;2.43;;;2.00;;
5414;SDS011;2730;51.512;7.504;2023-07-31T10:47:24;2.00;;;1.70;;
5414;SDS011;2730;51.512;7.504;2023-07-31T10:49:51;1.50;;;1.40;;
5414;SDS011;2730;51.512;7.504;2023-07-31T10:52:19;5.77;;;1.87;;
5414;SDS011;2730;51.512;7.504;2023-07-31T10:54:49;1.67;;;1.50;;
5414;SDS011;2730;51.512;7.504;2023-07-31T10:57:36;1.57;;;1.47;;
5414;SDS011;2730;51.512;7.504;2023-07-31T11:00:17;1.60;;;1.43;;
5414;SDS011;2730;51.512;7.504;2023-07-31T11:02:48;2.07;;;1.50;;
5414;SDS011;2730;51.512;7.504;2023-07-31T11:05:23;2.07;;;1.30;;
5414;SDS011;2730;51.512;7.504;2023-07-31T11:08:11;1.57;;;1.40;;
5414;SDS011;2730;51.512;7.504;2023-07-31T11:10:40;1.43;;;1.30;;
5414;SDS011;2730;51.512;7.504;2023-07-31T11:13:07;2.07;;;1.53;;
5414;SDS011;2730;51.512;7.504;2023-07-31T11:15:33;1.50;;;1.40;;
5414;SDS011;2730;51.512;7.504;2023-07-31T11:18:00;3.07;;;1.77;;
5414;SDS011;2730;51.512;7.504;2023-07-31T11:20:30;2.03;;;1.57;;
5414;SDS011;2730;51.512;7.504;2023-07-31T11:22:58;1.80;;;1.70;;
5414;SDS011;2730;51.512;7.504;2023-07-31T11:25:28;1.77;;;1.67;;
5414;SDS011;2730;51.512;7.504;2023-07-31T11:27:56;2.27;;;2.17;;
5414;SDS011;2730;51.512;7.504;2023-07-31T11:30:23;2.20;;;2.10;;
5414;SDS011;2730;51.512;7.504;2023-07-31T11:32:50;3.20;;;2.77;;
5414;SDS011;2730;51.512;7.504;2023-07-31T11:35:17;4.13;;;2.40;;
5414;SDS011;2730;51.512;7.504;2023-07-31T11:37:44;2.53;;;2.20;;
5414;SDS011;2730;51.512;7.504;2023-07-31T11:40:11;2.70;;;2.10;;
5414;SDS011;2730;51.512;7.504;2023-07-31T11:42:38;2.60;;;2.40;;
5414;SDS011;2730;51.512;7.504;2023-07-31T11:45:07;4.70;;;3.07;;
5414;SDS011;2730;51.512;7.504;2023-07-31T11:47:34;4.13;;;2.50;;
5414;SDS011;2730;51.512;7.504;2023-07-31T11:50:03;2.60;;;2.40;;
5414;SDS011;2730;51.512;7.504;2023-07-31T11:52:32;3.20;;;2.90;;
5414;SDS011;2730;51.512;7.504;2023-07-31T11:55:03;4.83;;;2.60;;
5414;SDS011;2730;51.512;7.504;2023-07-31T11:57:31;4.07;;;2.83;;
5414;SDS011;2730;51.512;7.504;2023-07-31T11:59:58;3.27;;;3.00;;
5414;SDS011;2730;51.512;7.504;2023-07-31T12:02:26;9.90;;;2.43;;
5414;SDS011;2730;51.512;7.504;2023-07-31T12:04:53;3.73;;;2.63;;
5414;SDS011;2730;51.512;7.504;2023-07-31T12:07:20;6.03;;;3.07;;
5414;SDS011;2730;51.512;7.504;2023-07-31T12:09:50;5.93;;;3.20;;
5414;SDS011;2730;51.512;7.504;2023-07-31T12:12:19;10.77;;;2.90;;
5414;SDS011;2730;51.512;7.504;2023-07-31T12:14:47;5.27;;;3.03;;
5414;SDS011;2730;51.512;7.504;2023-07-31T12:17:15;3.43;;;3.13;;
5414;SDS011;2730;51.512;7.504;2023-07-31T12:19:44;3.50;;;3.10;;
5414;SDS011;2730;51.512;7.504;2023-07-31T12:22:11;3.23;;;2.90;;
5414;SDS011;2730;51.512;7.504;2023-07-31T12:24:39;9.60;;;3.17;;
5414;SDS011;2730;51.512;7.504;2023-07-31T12:27:10;2.87;;;2.67;;
5414;SDS011;2730;51.512;7.504;2023-07-31T12:29:37;4.80;;;2.33;;
5414;SDS011;2730;51.512;7.504;2023-07-31T12:32:06;3.20;;;2.60;;
5414;SDS011;2730;51.512;7.504;2023-07-31T12:34:47;3.70;;;2.67;;
5414;SDS011;2730;51.512;7.504;2023-07-31T12:37:14;3.77;;;2.50;;
5414;SDS011;2730;51.512;7.504;2023-07-31T12:39:41;3.67;;;2.80;;
5414;SDS011;2730;51.512;7.504;2023-07-31T12:42:07;2.50;;;2.30;;
5414;SDS011;2730;51.512;7.504;2023-07-31T12:44:34;2.30;;;2.10;;
5414;SDS011;2730;51.512;7.504;2023-07-31T12:47:01;3.23;;;2.20;;
5414;SDS011;2730;51.512;7.504;2023-07-31T12:49:29;3.90;;;2.33;;
5414;SDS011;2730;51.512;7.504;2023-07-31T12:51:57;4.40;;;2.60;;
5414;SDS011;2730;51.512;7.504;2023-07-31T12:54:23;3.20;;;2.40;;
5414;SDS011;2730;51.512;7.504;2023-07-31T12:56:50;3.90;;;2.57;;
5414;SDS011;2730;51.512;7.504;2023-07-31T12:59:17;2.40;;;2.20;;
5414;SDS011;2730;51.512;7.504;2023-07-31T13:01:44;4.80;;;2.20;;
5414;SDS011;2730;51.512;7.504;2023-07-31T13:04:10;4.63;;;2.17;;
5414;SDS011;2730;51.512;7.504;2023-07-31T13:06:37;4.47;;;2.30;;
5414;SDS011;2730;51.512;7.504;2023-07-31T13:09:05;4.30;;;2.40;;
5414;SDS011;2730;51.512;7.504;2023-07-31T13:11:32;5.77;;;2.20;;
5414;SDS011;2730;51.512;7.504;2023-07-31T13:13:59;2.67;;;2.47;;
5414;SDS011;2730;51.512;7.504;2023-07-31T13:16:25;2.80;;;2.10;;
5414;SDS011;2730;51.512;7.504;2023-07-31T13:18:53;3.10;;;2.10;;
5414;SDS011;2730;51.512;7.504;2023-07-31T13:21:20;2.80;;;2.50;;
5414;SDS011;2730;51.512;7.504;2023-07-31T13:23:47;2.50;;;2.30;;
5414;SDS011;2730;51.512;7.504;2023-07-31T13:26:15;3.80;;;2.70;;
5414;SDS011;2730;51.512;7.504;2023-07-31T13:28:42;7.40;;;2.50;;
5414;SDS011;2730;51.512;7.504;2023-07-31T13:31:08;2.80;;;2.10;;
5414;SDS011;2730;51.512;7.504;2023-07-31T13:33:36;3.37;;;2.50;;
5414;SDS011;2730;51.512;7.504;2023-07-31T13:36:03;1.97;;;1.87;;
5414;SDS011;2730;51.512;7.504;2023-07-31T13:38:30;1.87;;;1.77;;
5414;SDS011;2730;51.512;7.504;2023-07-31T13:40:56;2.87;;;2.43;;
5414;SDS011;2730;51.512;7.504;2023-07-31T13:43:25;1.57;;;1.47;;
5414;SDS011;2730;51.512;7.504;2023-07-31T13:45:51;2.23;;;1.97;;
5414;SDS011;2730;51.512;7.504;2023-07-31T13:48:17;2.23;;;1.80;;
5414;SDS011;2730;51.512;7.504;2023-07-31T13:50:44;3.23;;;2.27;;
5414;SDS011;2730;51.512;7.504;2023-07-31T13:53:11;4.20;;;2.10;;
5414;SDS011;2730;51.512;7.504;2023-07-31T13:55:37;2.77;;;2.03;;
5414;SDS011;2730;51.512;7.504;2023-07-31T13:58:04;2.47;;;2.33;;
5414;SDS011;2730;51.512;7.504;2023-07-31T14:00:32;2.43;;;2.23;;
5414;SDS011;2730;51.512;7.504;2023-07-31T14:03:00;3.03;;;2.23;;
5414;SDS011;2730;51.512;7.504;2023-07-31T14:05:27;3.13;;;1.73;;
5414;SDS011;2730;51.512;7.504;2023-07-31T14:07:53;4.40;;;2.40;;
5414;SDS011;2730;51.512;7.504;2023-07-31T14:10:20;3.63;;;2.23;;
5414;SDS011;2730;51.512;7.504;2023-07-31T14:12:47;2.80;;;2.10;;
5414;SDS011;2730;51.512;7.504;2023-07-31T14:15:14;3.00;;;2.20;;
5414;SDS011;2730;51.512;7.504;2023-07-31T14:17:42;2.07;;;1.80;;
5414;SDS011;2730;51.512;7.504;2023-07-31T14:20:09;1.97;;;1.83;;
5414;SDS011;2730;51.512;7.504;2023-07-31T14:22:37;3.53;;;2.20;;
5414;SDS011;2730;51.512;7.504;2023-07-31T14:25:04;2.73;;;2.50;;
5414;SDS011;2730;51.512;7.504;2023-07-31T14:27:31;2.40;;;2.20;;
5414;SDS011;2730;51.512;7.504;2023-07-31T14:29:58;2.90;;;1.90;;
5414;SDS011;2730;51.512;7.504;2023-07-31T14:32:25;2.73;;;2.53;;
5414;SDS011;2730;51.512;7.504;2023-07-31T14:34:53;3.50;;;2.00;;
5414;SDS011;2730;51.512;7.504;2023-07-31T14:37:20;2.60;;;2.30;;
5414;SDS011;2730;51.512;7.504;2023-07-31T14:39:47;2.70;;;2.50;;
5414;SDS011;2730;51.512;7.504;2023-07-31T14:42:14;2.60;;;2.07;;
5414;SDS011;2730;51.512;7.504;2023-07-31T14:44:43;5.07;;;2.50;;
5414;SDS011;2730;51.512;7.504;2023-07-31T14:47:12;3.60;;;2.70;;
5414;SDS011;2730;51.512;7.504;2023-07-31T14:49:38;2.30;;;2.10;;
5414;SDS011;2730;51.512;7.504;2023-07-31T14:52:07;3.57;;;2.70;;
5414;SDS011;2730;51.512;7.504;2023-07-31T14:54:34;3.73;;;2.60;;
5414;SDS011;2730;51.512;7.504;2023-07-31T14:57:01;2.63;;;2.43;;
5414;SDS011;2730;51.512;7.504;2023-07-31T14:59:28;5.33;;;2.53;;
5414;SDS011;2730;51.512;7.504;2023-07-31T15:01:54;11.50;;;2.80;;
5414;SDS011;2730;51.512;7.504;2023-07-31T15:04:21;3.20;;;2.53;;
5414;SDS011;2730;51.512;7.504;2023-07-31T15:06:48;4.63;;;2.50;;
5414;SDS011;2730;51.512;7.504;2023-07-31T15:09:17;5.40;;;3.60;;
5414;SDS011;2730;51.512;7.504;2023-07-31T15:11:44;4.07;;;2.57;;
5414;SDS011;2730;51.512;7.504;2023-07-31T15:14:10;5.33;;;2.83;;